Observations for YEOVILTON NAVY, United Kingdom (EGDY)

EGDY 221350Z 01011KT 9999 FEW030 13/04 Q1038 BLU NOSIG  
EGDY 221250Z 36012KT 9999 FEW030 13/05 Q1038 BLU NOSIG  
EGDY 221150Z 01014KT 9999 FEW030 13/05 Q1038 BLU NOSIG  
EGDY 221050Z 01014KT 9999 FEW030 12/06 Q1038 BLU NOSIG  
EGDY 220950Z 36010KT 9999 FEW030 11/06 Q1038 BLU NOSIG  
EGDY 220850Z 35002KT CAVOK 09/06 Q1038 BLU NOSIG
EGDY 220750Z 20001KT 9999 FEW030 06/05 Q1038 BLU NOSIG  
EGDY 220650Z 30002KT CAVOK 04/02 Q1037 BLU NOSIG
EGDY 220550Z 32005KT 9999 FEW030 07/04 Q1036 BLU NOSIG  
EGDY 220450Z 34006KT CAVOK 08/05 Q1035 BLU  
EGDY 220350Z 01006KT CAVOK 09/05 Q1035 BLU  
EGDY 220250Z 01009KT CAVOK 10/06 Q1034 BLU  
EGDY 220150Z 36009KT CAVOK 10/06 Q1034 BLU  
EGDY 220050Z AUTO 36012KT 9999 SCT047/// 11/07 Q1033
EGDY 212350Z AUTO 36011KT 9999 SCT035/// BKN041/// 13/07 Q1033  
EGDY 212250Z AUTO 01012KT 9999 BKN032/// 13/08 Q1032
EGDY 212150Z AUTO 01014KT 9999 FEW019/// BKN024/// 13/09 Q1031  
EGDY 212050Z AUTO 35008KT 9999 BKN009/// SCT023/// BKN029/// 14/13 Q1030
EGDY 211950Z AUTO 32005KT 9999 BKN029/// 14/13 Q1029
EGDY 211850Z AUTO 31006KT 9999 SCT009/// BKN026/// 14/12 Q1029  
EGDY 211750Z AUTO 32007KT 9999 SCT011/// SCT030/// BKN035/// 14/11 Q1029
EGDY 211650Z AUTO 31011KT 9999 BKN029/// 14/11 Q1028
EGDY 211550Z AUTO 31010KT 9999 NCD 16/11 Q1027  
EGDY 211450Z AUTO 33008KT 9999 NCD 16/12 Q1027  
EGDY 211350Z AUTO 31009KT 9999 NCD 17/11 Q1027